createdAt,value
2018-07-06T00:00:07.448Z,19.78
2018-07-06T00:01:07.324Z,19.85
2018-07-06T00:02:07.343Z,19.78
2018-07-06T00:03:07.156Z,19.75
2018-07-06T00:04:07.195Z,19.75
2018-07-06T00:05:07.003Z,19.71
2018-07-06T00:06:06.954Z,19.72
2018-07-06T00:07:06.858Z,19.79
2018-07-06T00:08:06.893Z,19.70
2018-07-06T00:09:06.717Z,19.68
2018-07-06T00:10:06.676Z,19.70
2018-07-06T00:11:06.575Z,19.70
2018-07-06T00:12:06.487Z,19.62
2018-07-06T00:13:06.382Z,19.75
2018-07-06T00:14:06.438Z,19.65
2018-07-06T00:15:06.224Z,19.64
2018-07-06T00:16:06.268Z,19.65
2018-07-06T00:17:06.055Z,19.60
2018-07-06T00:18:06.016Z,19.58
2018-07-06T00:19:05.929Z,19.62
2018-07-06T00:20:05.930Z,19.61
2018-07-06T00:21:05.748Z,19.57
2018-07-06T00:22:05.745Z,19.60
2018-07-06T00:23:05.603Z,19.50
2018-07-06T00:24:05.590Z,19.60
2018-07-06T00:25:05.433Z,19.52
2018-07-06T00:26:05.457Z,19.57
2018-07-06T00:27:05.289Z,19.49
2018-07-06T00:28:05.258Z,19.52
2018-07-06T00:29:05.151Z,19.53
2018-07-06T00:30:05.117Z,19.46
2018-07-06T00:31:04.975Z,19.43
2018-07-06T00:33:47.139Z,19.45
2018-07-06T00:36:29.165Z,19.40
2018-07-06T00:37:29.185Z,19.32
2018-07-06T00:38:28.984Z,19.31
2018-07-06T00:39:29.010Z,19.34
2018-07-06T00:40:28.834Z,19.31
2018-07-06T00:43:23.222Z,19.20
2018-07-06T00:44:23.192Z,19.30
2018-07-06T00:45:22.985Z,19.25
2018-07-06T00:46:23.002Z,19.23
2018-07-06T00:47:22.855Z,19.15
2018-07-06T00:50:04.643Z,19.15
2018-07-06T00:51:04.830Z,19.09
2018-07-06T00:52:04.487Z,19.09
2018-07-06T00:53:04.555Z,18.99
2018-07-06T00:54:04.325Z,18.93
2018-07-06T00:55:04.338Z,18.99
2018-07-06T00:56:04.194Z,19.09
2018-07-06T00:57:05.192Z,18.99
2018-07-06T00:58:04.016Z,18.97
2018-07-06T00:59:04.029Z,18.84
2018-07-06T01:00:03.855Z,18.86
2018-07-06T01:01:04.906Z,18.86
2018-07-06T01:03:03.697Z,18.83
2018-07-06T01:04:03.543Z,18.86
2018-07-06T01:05:03.561Z,18.86
2018-07-06T01:06:03.405Z,18.76
2018-07-06T01:07:03.369Z,18.83
2018-07-06T01:08:03.264Z,18.82
2018-07-06T01:09:03.186Z,18.78
2018-07-06T01:10:03.136Z,18.82
2018-07-06T01:11:03.119Z,18.75
2018-07-06T01:12:02.937Z,18.76
2018-07-06T01:13:02.949Z,18.79
2018-07-06T01:14:02.777Z,18.78
2018-07-06T01:15:02.713Z,18.72
2018-07-06T01:16:02.604Z,18.72
2018-07-06T01:17:02.655Z,18.68
2018-07-06T01:18:02.486Z,18.66
2018-07-06T01:19:02.430Z,18.75
2018-07-06T01:20:02.307Z,18.69
2018-07-06T01:21:02.237Z,18.65
2018-07-06T01:22:02.131Z,18.74
2018-07-06T01:23:02.206Z,18.64
2018-07-06T01:24:02.011Z,18.72
2018-07-06T01:25:01.959Z,18.60
2018-07-06T01:26:01.824Z,18.68
2018-07-06T01:27:01.862Z,18.57
2018-07-06T01:28:01.692Z,18.64
2018-07-06T01:29:01.672Z,18.74
2018-07-06T01:30:01.521Z,18.62
2018-07-06T01:31:01.495Z,18.64
2018-07-06T01:32:01.363Z,18.57
2018-07-06T01:33:01.317Z,18.51
2018-07-06T01:34:01.193Z,18.50
2018-07-06T01:35:02.265Z,18.47
2018-07-06T01:36:01.036Z,18.44
2018-07-06T01:37:01.010Z,18.57
2018-07-06T01:38:00.882Z,18.57
2018-07-06T01:39:00.934Z,18.53
2018-07-06T01:40:00.722Z,18.56
2018-07-06T01:41:00.776Z,18.51
2018-07-06T01:42:00.561Z,18.44
2018-07-06T01:43:01.613Z,18.49
2018-07-06T01:44:00.406Z,18.41
2018-07-06T01:45:00.448Z,18.42
2018-07-06T01:46:00.247Z,18.41
2018-07-06T01:48:42.176Z,18.39
2018-07-06T01:49:42.154Z,18.36
2018-07-06T01:50:42.033Z,18.31
2018-07-06T01:51:41.961Z,18.29
2018-07-06T01:52:41.843Z,18.28
2018-07-06T01:53:41.913Z,18.29
2018-07-06T01:54:41.696Z,18.28
2018-07-06T01:55:41.683Z,18.31
2018-07-06T01:56:41.539Z,18.26
2018-07-06T01:57:41.520Z,18.21
2018-07-06T01:58:41.402Z,18.26
2018-07-06T01:59:41.405Z,18.23
2018-07-06T02:00:41.210Z,18.34
2018-07-06T02:01:42.264Z,18.23
2018-07-06T02:02:41.061Z,18.26
2018-07-06T02:03:41.015Z,18.25
2018-07-06T02:04:40.907Z,18.17
2018-07-06T02:07:23.228Z,18.20
2018-07-06T02:08:23.143Z,18.25
2018-07-06T02:09:23.016Z,18.23
2018-07-06T02:10:23.042Z,18.23
2018-07-06T02:12:47.702Z,18.16
2018-07-06T02:13:47.643Z,18.16
2018-07-06T02:14:47.534Z,18.17
2018-07-06T02:15:47.555Z,18.14
2018-07-06T02:16:47.382Z,18.21
2018-07-06T02:17:47.643Z,18.17
2018-07-06T02:18:47.204Z,18.14
2018-07-06T02:21:29.199Z,18.10
2018-07-06T02:22:29.199Z,18.05
2018-07-06T02:23:29.014Z,18.10
2018-07-06T02:24:29.006Z,17.98
2018-07-06T02:25:28.873Z,18.01
2018-07-06T02:28:10.697Z,17.99
2018-07-06T02:29:10.675Z,18.02
2018-07-06T02:30:10.576Z,17.96
2018-07-06T02:31:10.499Z,18.01
2018-07-06T02:32:10.414Z,18.04
2018-07-06T02:34:52.201Z,17.87
2018-07-06T02:35:56.020Z,17.96
2018-07-06T02:36:52.019Z,17.98
2018-07-06T02:37:53.945Z,17.81
2018-07-06T02:38:51.889Z,17.89
2018-07-06T02:39:54.014Z,17.96
2018-07-06T02:40:51.774Z,17.89
2018-07-06T02:41:56.428Z,17.89
2018-07-06T02:42:51.556Z,17.91
2018-07-06T02:43:56.550Z,17.96
2018-07-06T02:44:51.422Z,17.81
2018-07-06T02:45:51.383Z,17.80
2018-07-06T02:46:51.246Z,17.80
2018-07-06T02:47:51.258Z,17.73
2018-07-06T02:48:51.064Z,17.74
2018-07-06T02:49:51.099Z,17.73
2018-07-06T02:50:50.926Z,17.70
2018-07-06T02:51:50.912Z,17.60
2018-07-06T02:52:50.766Z,17.66
2018-07-06T02:53:50.780Z,17.70
2018-07-06T02:54:50.629Z,17.71
2018-07-06T02:55:50.635Z,17.70
2018-07-06T02:56:50.444Z,17.71
2018-07-06T02:57:50.398Z,17.70
2018-07-06T02:58:50.306Z,17.73
2018-07-06T02:59:50.356Z,17.76
2018-07-06T03:00:50.152Z,17.70
2018-07-06T03:03:32.204Z,17.73
2018-07-06T03:04:32.227Z,17.76
2018-07-06T03:05:32.051Z,17.80
2018-07-06T03:06:32.021Z,17.83
2018-07-06T03:07:31.880Z,17.80
2018-07-06T03:08:31.824Z,17.70
2018-07-06T03:09:31.717Z,17.73
2018-07-06T03:12:13.738Z,17.66
2018-07-06T03:13:13.745Z,17.71
2018-07-06T03:14:13.521Z,17.66
2018-07-06T03:15:13.552Z,17.65
2018-07-06T03:16:13.394Z,17.70
2018-07-06T03:17:13.395Z,17.65
2018-07-06T03:18:13.219Z,17.63
2018-07-06T03:19:13.157Z,17.73
2018-07-06T03:20:13.082Z,17.66
2018-07-06T03:21:13.071Z,17.68
2018-07-06T03:22:12.916Z,17.70
2018-07-06T03:23:12.878Z,17.66
2018-07-06T03:24:12.748Z,17.66
2018-07-06T03:25:12.693Z,17.63
2018-07-06T03:26:12.613Z,17.68
2018-07-06T03:27:12.636Z,17.66
2018-07-06T03:28:12.464Z,17.68
2018-07-06T03:30:54.700Z,17.57
2018-07-06T03:31:54.724Z,17.57
2018-07-06T03:32:54.588Z,17.60
2018-07-06T03:35:36.690Z,17.66
2018-07-06T03:36:36.718Z,17.65
2018-07-06T03:37:36.546Z,17.70
2018-07-06T03:38:36.544Z,17.60
2018-07-06T03:39:36.375Z,17.63
2018-07-06T03:40:36.353Z,17.63
2018-07-06T03:41:36.220Z,17.68
2018-07-06T03:42:36.286Z,17.60
2018-07-06T03:43:36.062Z,17.58
2018-07-06T03:44:36.056Z,17.54
2018-07-06T03:45:35.904Z,17.58
2018-07-06T03:46:35.888Z,17.58
2018-07-06T03:47:35.767Z,17.70
2018-07-06T03:48:35.772Z,17.73
2018-07-06T03:49:35.580Z,17.71
2018-07-06T03:50:35.519Z,17.65
2018-07-06T03:51:35.429Z,17.71
2018-07-06T03:52:35.427Z,17.60
2018-07-06T03:53:35.267Z,17.77
2018-07-06T03:54:35.352Z,17.95
2018-07-06T03:55:35.108Z,17.95
2018-07-06T03:56:35.124Z,17.86
2018-07-06T03:57:34.958Z,17.80
2018-07-06T03:58:34.922Z,17.80
2018-07-06T03:59:34.815Z,17.91
2018-07-06T04:00:34.840Z,17.86
2018-07-06T04:01:34.658Z,17.94
2018-07-06T04:02:34.643Z,17.95
2018-07-06T04:03:34.481Z,17.80
2018-07-06T04:04:35.509Z,17.80
2018-07-06T04:05:34.326Z,17.77
2018-07-06T04:06:34.359Z,17.77
2018-07-06T04:07:34.168Z,17.81
2018-07-06T04:10:16.220Z,17.84
2018-07-06T04:11:16.178Z,17.84
2018-07-06T04:12:16.039Z,17.91
2018-07-06T04:13:16.083Z,17.87
2018-07-06T04:14:15.882Z,17.84
2018-07-06T04:15:15.926Z,17.96
2018-07-06T04:16:15.732Z,17.91
2018-07-06T04:17:15.731Z,17.89
2018-07-06T04:18:15.559Z,18.10
2018-07-06T04:20:57.738Z,17.92
2018-07-06T04:21:57.645Z,17.94
2018-07-06T04:22:57.554Z,17.89
2018-07-06T04:23:57.521Z,17.94
2018-07-06T04:24:57.404Z,18.05
2018-07-06T04:25:57.363Z,18.01
2018-07-06T04:26:57.249Z,18.01
2018-07-06T04:27:57.242Z,18.10
2018-07-06T04:28:57.072Z,18.16
2018-07-06T04:29:57.024Z,18.23
2018-07-06T04:30:56.948Z,18.19
2018-07-06T04:31:56.841Z,18.16
2018-07-06T04:32:56.752Z,18.02
2018-07-06T04:33:56.759Z,18.07
2018-07-06T04:34:56.600Z,18.09
2018-07-06T04:35:56.559Z,18.01
2018-07-06T04:36:56.482Z,18.10
2018-07-06T04:37:56.485Z,18.09
2018-07-06T04:38:56.281Z,17.96
2018-07-06T04:39:56.209Z,18.01
2018-07-06T04:40:56.140Z,17.96
2018-07-06T04:41:56.091Z,18.02
2018-07-06T04:42:55.998Z,18.13
2018-07-06T04:43:55.907Z,18.19
2018-07-06T04:44:55.817Z,18.20
2018-07-06T04:45:55.735Z,18.21
2018-07-06T04:46:55.686Z,18.26
2018-07-06T04:47:55.573Z,18.19
2018-07-06T04:48:55.488Z,18.35
2018-07-06T04:49:55.441Z,18.29
2018-07-06T04:50:55.355Z,18.44
2018-07-06T04:51:55.283Z,18.44
2018-07-06T04:52:55.206Z,18.56
2018-07-06T04:53:55.113Z,18.53
2018-07-06T04:54:55.029Z,18.50
2018-07-06T04:55:54.950Z,18.54
2018-07-06T04:56:54.862Z,18.51
2018-07-06T04:57:54.811Z,18.47
2018-07-06T04:58:54.718Z,18.49
2018-07-06T04:59:54.693Z,18.53
2018-07-06T05:00:54.553Z,18.56
2018-07-06T05:01:54.485Z,18.60
2018-07-06T05:02:54.413Z,18.56
2018-07-06T05:05:36.209Z,18.57
2018-07-06T05:08:18.231Z,18.53
2018-07-06T05:09:18.137Z,18.47
2018-07-06T05:10:18.051Z,18.42
2018-07-06T05:11:18.016Z,18.42
2018-07-06T05:12:17.894Z,18.51
2018-07-06T05:13:18.842Z,18.62
2018-07-06T05:14:17.751Z,18.64
2018-07-06T05:15:17.678Z,18.53
2018-07-06T05:16:17.615Z,18.49
2018-07-06T05:17:17.520Z,18.68
2018-07-06T05:18:17.494Z,18.60
2018-07-06T05:19:17.461Z,18.65
2018-07-06T05:20:17.277Z,18.59
2018-07-06T05:22:59.220Z,18.56
2018-07-06T05:23:59.281Z,18.65
2018-07-06T05:24:59.075Z,18.50
2018-07-06T05:52:41.265Z,18.76
2018-07-06T05:53:41.220Z,18.87
2018-07-06T05:54:41.079Z,18.79
2018-07-06T05:55:41.055Z,18.86
2018-07-06T05:56:56.942Z,18.82
2018-07-06T05:57:40.843Z,18.76
2018-07-06T05:58:40.776Z,18.79
2018-07-06T05:59:40.678Z,18.87
2018-07-06T06:00:40.633Z,18.89
2018-07-06T06:01:40.518Z,18.89
2018-07-06T06:02:40.450Z,18.87
2018-07-06T06:03:40.366Z,18.99
2018-07-06T06:06:22.243Z,18.68
2018-07-06T06:09:04.229Z,18.74
2018-07-06T06:10:04.170Z,18.76
2018-07-06T06:11:04.087Z,18.78
2018-07-06T06:12:05.055Z,18.89
2018-07-06T06:13:03.922Z,18.89
2018-07-06T06:15:45.761Z,18.87
2018-07-06T06:16:45.690Z,19.02
2018-07-06T06:17:45.588Z,19.10
2018-07-06T06:18:45.619Z,19.09
2018-07-06T06:19:45.426Z,19.13
2018-07-06T06:20:45.368Z,19.17
2018-07-06T06:21:45.263Z,19.28
2018-07-06T06:22:45.211Z,19.28
2018-07-06T06:23:45.118Z,19.42
2018-07-06T06:24:45.091Z,19.45
2018-07-06T06:25:44.945Z,19.32
2018-07-06T06:26:44.904Z,19.35
2018-07-06T06:27:44.796Z,19.46
2018-07-06T06:28:44.744Z,19.39
2018-07-06T06:29:44.629Z,19.46
2018-07-06T06:32:26.762Z,19.55
2018-07-06T06:33:26.791Z,19.52
2018-07-06T06:34:26.584Z,19.58
2018-07-06T06:35:26.520Z,19.65
2018-07-06T06:36:26.425Z,19.70
2018-07-06T06:37:26.382Z,19.71
2018-07-06T06:38:26.273Z,19.71
2018-07-06T06:39:26.264Z,19.52
2018-07-06T06:40:26.119Z,19.07
2018-07-06T06:41:26.049Z,19.13
2018-07-06T06:42:25.981Z,19.20
2018-07-06T06:45:08.239Z,19.52
2018-07-06T06:47:50.270Z,19.79
2018-07-06T06:48:50.199Z,19.87
2018-07-06T06:49:50.102Z,19.90
2018-07-06T06:52:14.739Z,19.61
2018-07-06T06:53:15.689Z,19.72
2018-07-06T06:54:14.600Z,19.89
2018-07-06T06:55:14.537Z,19.94
2018-07-06T06:56:14.457Z,20.05
2018-07-06T06:57:14.372Z,19.97
2018-07-06T06:58:14.346Z,20.15
2018-07-06T07:00:56.286Z,19.89
2018-07-06T07:01:56.170Z,19.92
2018-07-06T07:02:56.138Z,19.79
2018-07-06T07:03:56.036Z,19.79
2018-07-06T07:04:55.943Z,19.90
2018-07-06T07:05:55.906Z,19.97
2018-07-06T07:06:55.809Z,19.70
2018-07-06T07:07:55.847Z,19.64
2018-07-06T07:08:55.671Z,19.62
2018-07-06T07:09:55.599Z,19.70
2018-07-06T07:10:55.471Z,19.43
2018-07-06T07:11:55.409Z,19.38
2018-07-06T07:12:55.314Z,19.65
2018-07-06T07:13:56.382Z,19.86
2018-07-06T07:14:55.154Z,19.92
2018-07-06T07:15:55.098Z,20.05
2018-07-06T07:16:55.003Z,19.92
2018-07-06T07:17:54.943Z,19.87
2018-07-06T07:18:54.950Z,20.00
2018-07-06T07:19:54.785Z,20.16
2018-07-06T07:20:54.688Z,20.35
2018-07-06T07:21:54.610Z,20.41
2018-07-06T07:22:54.532Z,20.38
2018-07-06T07:23:54.517Z,20.53
2018-07-06T07:24:54.420Z,20.30
2018-07-06T07:27:36.260Z,20.12
2018-07-06T07:28:37.198Z,20.33
2018-07-06T07:29:36.106Z,20.12
2018-07-06T07:30:36.035Z,20.26
2018-07-06T07:31:35.947Z,20.46
2018-07-06T07:32:35.886Z,20.56
2018-07-06T07:33:35.830Z,20.48
2018-07-06T07:34:36.785Z,20.50
2018-07-06T07:35:35.631Z,20.41
2018-07-06T07:36:35.575Z,20.35
2018-07-06T07:37:35.496Z,20.22
2018-07-06T07:38:35.419Z,20.27
2018-07-06T07:39:35.347Z,20.10
2018-07-06T07:40:35.261Z,19.92
2018-07-06T07:41:35.204Z,19.94
2018-07-06T07:42:35.116Z,20.17
2018-07-06T07:43:35.019Z,20.22
2018-07-06T07:44:34.965Z,20.35
2018-07-06T07:45:34.855Z,20.40
2018-07-06T07:46:34.858Z,20.48
2018-07-06T07:47:34.723Z,20.61
2018-07-06T07:50:16.784Z,20.68
2018-07-06T07:51:17.194Z,20.66
2018-07-06T07:52:16.633Z,20.50
2018-07-06T07:53:16.553Z,20.64
2018-07-06T07:54:16.460Z,20.60
2018-07-06T07:55:16.446Z,20.56
2018-07-06T07:56:16.324Z,20.66
2018-07-06T07:57:16.255Z,20.58
2018-07-06T07:58:16.154Z,20.54
2018-07-06T07:59:16.105Z,20.61
2018-07-06T08:00:16.047Z,20.56
2018-07-06T08:01:16.113Z,20.69
2018-07-06T08:02:15.851Z,20.68
2018-07-06T08:03:15.793Z,20.71
2018-07-06T08:04:15.680Z,20.87
2018-07-06T08:05:15.640Z,20.58
2018-07-06T08:06:15.541Z,20.64
2018-07-06T08:07:15.501Z,20.63
2018-07-06T08:08:15.393Z,20.71
2018-07-06T08:09:15.308Z,20.88
2018-07-06T08:10:15.212Z,20.78
2018-07-06T08:11:15.155Z,20.93
2018-07-06T08:12:15.097Z,20.96
2018-07-06T08:14:57.297Z,20.94
2018-07-06T08:15:57.243Z,20.98
2018-07-06T08:16:57.150Z,21.06
2018-07-06T08:17:57.082Z,21.06
2018-07-06T08:18:56.979Z,20.88
2018-07-06T08:19:56.925Z,20.87
2018-07-06T08:20:56.847Z,20.83
2018-07-06T08:21:56.743Z,20.82
2018-07-06T08:22:56.727Z,20.96
2018-07-06T08:25:38.864Z,21.01
2018-07-06T08:26:38.713Z,20.97
2018-07-06T08:27:38.677Z,20.97
2018-07-06T08:28:38.580Z,20.85
2018-07-06T08:29:38.474Z,20.88
2018-07-06T08:30:38.414Z,20.56
2018-07-06T08:31:38.361Z,20.75
2018-07-06T08:34:20.306Z,20.71
2018-07-06T08:35:20.223Z,20.58
2018-07-06T08:36:20.172Z,20.46
2018-07-06T08:37:20.071Z,20.16
2018-07-06T08:38:19.969Z,20.51
2018-07-06T08:39:19.964Z,20.69
2018-07-06T08:40:19.854Z,21.22
2018-07-06T08:41:19.772Z,21.37
2018-07-06T08:42:19.665Z,21.51
2018-07-06T08:43:20.621Z,21.49
2018-07-06T08:44:19.507Z,21.63
2018-07-06T08:45:19.487Z,21.63
2018-07-06T08:46:19.383Z,21.55
2018-07-06T08:47:19.286Z,21.53
2018-07-06T08:48:19.199Z,21.37
2018-07-06T08:49:19.170Z,21.53
2018-07-06T08:50:19.056Z,21.58
2018-07-06T08:53:01.281Z,21.82
2018-07-06T08:54:01.222Z,22.01
2018-07-06T08:55:01.163Z,22.45
2018-07-06T08:57:43.291Z,24.15
2018-07-06T08:58:43.303Z,24.26
2018-07-06T08:59:43.146Z,24.00
2018-07-06T09:00:43.102Z,23.94
2018-07-06T09:01:42.981Z,23.90
2018-07-06T09:02:42.924Z,23.84
2018-07-06T09:03:42.831Z,23.63
2018-07-06T09:04:42.782Z,23.53
2018-07-06T09:05:42.715Z,23.29
2018-07-06T09:08:24.801Z,22.57
2018-07-06T09:09:24.832Z,22.85
2018-07-06T09:10:24.648Z,23.53
2018-07-06T09:11:24.605Z,23.62
2018-07-06T09:12:24.507Z,23.82
2018-07-06T09:15:06.813Z,23.77
2018-07-06T09:16:06.744Z,24.21
2018-07-06T09:17:06.649Z,24.09
2018-07-06T09:19:49.015Z,23.93
2018-07-06T09:20:48.770Z,24.26
2018-07-06T09:21:48.656Z,24.27
2018-07-06T09:22:48.587Z,24.08
2018-07-06T09:23:48.499Z,23.82
2018-07-06T09:24:48.437Z,23.97
2018-07-06T09:25:48.533Z,24.29
2018-07-06T09:26:48.418Z,24.24
2018-07-06T09:27:48.208Z,24.30
2018-07-06T09:28:48.160Z,23.63
2018-07-06T09:29:48.073Z,23.50
2018-07-06T09:30:49.031Z,23.38
2018-07-06T09:31:47.941Z,23.18
2018-07-06T09:32:47.847Z,23.62
2018-07-06T09:33:47.765Z,23.52
2018-07-06T09:34:47.692Z,23.11
2018-07-06T09:35:47.639Z,22.99
2018-07-06T09:36:48.579Z,24.00
2018-07-06T09:37:47.477Z,25.19
2018-07-06T09:38:47.405Z,25.82
2018-07-06T09:39:47.333Z,26.47
2018-07-06T09:40:47.249Z,26.69
2018-07-06T09:41:47.195Z,27.52
2018-07-06T09:42:47.130Z,28.17
2018-07-06T09:43:47.032Z,28.03
2018-07-06T09:44:46.986Z,27.06
2018-07-06T09:45:46.915Z,26.79
2018-07-06T09:46:46.833Z,27.34
2018-07-06T09:47:46.769Z,27.87
2018-07-06T09:48:46.683Z,27.18
2018-07-06T09:49:46.607Z,27.01
2018-07-06T09:50:46.545Z,26.81
2018-07-06T09:51:46.484Z,27.16
2018-07-06T09:52:46.424Z,27.34
2018-07-06T09:53:46.330Z,27.49
2018-07-06T09:54:46.264Z,28.05
2018-07-06T09:55:46.189Z,28.11
2018-07-06T09:56:46.120Z,27.05
2018-07-06T09:57:46.076Z,26.87
2018-07-06T09:58:45.987Z,26.83
2018-07-06T09:59:45.955Z,27.02
2018-07-06T10:00:45.865Z,27.66
2018-07-06T10:01:45.790Z,28.65
2018-07-06T10:02:45.764Z,28.91
2018-07-06T10:03:45.647Z,28.62
2018-07-06T10:06:27.826Z,28.33
2018-07-06T10:09:10.344Z,27.65
2018-07-06T10:11:52.316Z,27.95
2018-07-06T10:12:53.280Z,28.64
2018-07-06T10:13:52.192Z,28.54
2018-07-06T10:14:52.138Z,27.48
2018-07-06T10:15:52.054Z,27.21
2018-07-06T10:16:52.015Z,27.38
2018-07-06T10:17:51.953Z,27.50
2018-07-06T10:18:51.890Z,27.96
2018-07-06T10:19:51.791Z,28.52
2018-07-06T10:20:51.777Z,28.83
2018-07-06T10:21:51.683Z,28.79
2018-07-06T10:24:33.859Z,27.86
2018-07-06T10:27:15.822Z,27.03
2018-07-06T10:28:15.756Z,27.68
2018-07-06T10:29:15.726Z,27.65
2018-07-06T10:31:57.829Z,27.02
2018-07-06T10:32:57.839Z,27.28
2018-07-06T10:33:57.759Z,27.43
2018-07-06T10:34:58.665Z,26.98
2018-07-06T10:35:57.564Z,27.68
2018-07-06T10:36:57.510Z,27.93
2018-07-06T10:37:57.440Z,28.05
2018-07-06T10:38:57.357Z,28.83
2018-07-06T10:39:57.414Z,29.00
2018-07-06T10:40:57.259Z,28.62
2018-07-06T10:41:57.169Z,28.57
2018-07-06T10:42:57.112Z,28.54
2018-07-06T10:43:57.043Z,28.77
2018-07-06T10:44:56.992Z,29.15
2018-07-06T10:45:56.915Z,28.83
2018-07-06T10:46:56.848Z,28.82
2018-07-06T10:47:56.766Z,28.70
2018-07-06T10:48:56.712Z,28.72
2018-07-06T10:49:56.658Z,29.17
2018-07-06T10:52:38.827Z,27.99
2018-07-06T10:53:38.781Z,28.11
2018-07-06T10:54:38.715Z,28.33
2018-07-06T10:55:38.652Z,28.43
2018-07-06T10:56:38.574Z,28.74
2018-07-06T10:59:20.853Z,29.44
2018-07-06T11:00:20.808Z,29.89
2018-07-06T11:01:20.725Z,30.36
2018-07-06T11:02:20.650Z,30.46
2018-07-06T11:03:20.585Z,30.46
2018-07-06T11:04:20.540Z,30.73
2018-07-06T11:05:20.443Z,30.64
2018-07-06T11:06:20.401Z,30.45
2018-07-06T11:07:20.342Z,30.94
2018-07-06T11:08:20.274Z,30.38
2018-07-06T11:09:20.204Z,30.13
2018-07-06T11:10:20.145Z,30.36
2018-07-06T11:11:20.122Z,30.63
2018-07-06T11:12:20.013Z,30.97
2018-07-06T11:13:19.947Z,31.34
2018-07-06T11:14:19.894Z,30.75
2018-07-06T11:15:19.820Z,30.79
2018-07-06T11:16:20.424Z,30.04
2018-07-06T11:17:19.706Z,30.22
2018-07-06T11:18:19.652Z,29.88
2018-07-06T11:19:19.566Z,28.11
2018-07-06T11:20:19.515Z,27.93
2018-07-06T11:21:19.461Z,28.80
2018-07-06T11:22:19.421Z,29.20
2018-07-06T11:23:19.326Z,29.58
2018-07-06T11:24:19.261Z,30.16
2018-07-06T11:25:19.224Z,30.32
2018-07-06T11:26:20.173Z,30.46
2018-07-06T11:27:19.084Z,30.29
2018-07-06T11:30:01.341Z,28.95
2018-07-06T11:32:43.374Z,29.89
2018-07-06T11:33:43.284Z,29.42
2018-07-06T11:34:43.215Z,28.82
2018-07-06T11:35:43.162Z,28.94
2018-07-06T11:36:43.090Z,29.03
2018-07-06T11:37:43.044Z,28.72
2018-07-06T11:38:42.956Z,28.76
2018-07-06T11:39:42.902Z,28.45
2018-07-06T11:40:42.824Z,27.93
2018-07-06T11:43:24.893Z,29.79
2018-07-06T11:44:24.797Z,29.97
2018-07-06T11:45:24.721Z,29.33
2018-07-06T11:46:24.670Z,28.80
2018-07-06T11:47:24.598Z,28.72
2018-07-06T11:48:24.550Z,28.24
2018-07-06T11:49:24.474Z,28.73
2018-07-06T11:50:24.449Z,28.82
2018-07-06T11:51:24.325Z,28.38
2018-07-06T11:52:24.264Z,28.61
2018-07-06T11:53:24.228Z,28.83
2018-07-06T11:54:24.168Z,29.37
2018-07-06T11:55:24.079Z,30.04
2018-07-06T11:56:24.007Z,30.30
2018-07-06T11:57:23.926Z,30.81
2018-07-06T11:58:23.903Z,30.29
2018-07-06T11:59:23.849Z,29.74
2018-07-06T12:00:23.742Z,29.97
2018-07-06T12:01:23.668Z,29.91
2018-07-06T12:02:23.625Z,29.71
2018-07-06T12:03:23.564Z,29.73
2018-07-06T12:04:23.530Z,29.26
2018-07-06T12:05:23.434Z,28.72
2018-07-06T12:06:23.353Z,27.93
2018-07-06T12:07:23.274Z,27.48
2018-07-06T12:08:23.223Z,27.16
2018-07-06T12:09:23.145Z,27.86
2018-07-06T12:10:23.070Z,28.55
2018-07-06T12:11:22.994Z,28.82
2018-07-06T12:12:22.971Z,28.62
2018-07-06T12:13:22.877Z,28.95
2018-07-06T12:14:22.808Z,29.12
2018-07-06T12:15:22.756Z,29.02
2018-07-06T12:16:22.679Z,28.97
2018-07-06T12:17:22.594Z,28.55
2018-07-06T12:18:22.532Z,28.21
2018-07-06T12:19:22.459Z,28.06
2018-07-06T12:20:22.383Z,28.45
2018-07-06T12:21:22.364Z,28.36
2018-07-06T12:22:22.233Z,28.14
2018-07-06T12:23:22.161Z,28.24
2018-07-06T12:24:22.112Z,28.08
2018-07-06T12:25:22.043Z,27.71
2018-07-06T12:26:21.979Z,27.55
2018-07-06T12:27:22.393Z,27.31
2018-07-06T12:28:21.816Z,27.12
2018-07-06T12:29:21.781Z,27.35
2018-07-06T12:30:21.707Z,27.58
2018-07-06T12:31:21.601Z,27.74
2018-07-06T12:32:21.543Z,27.59
2018-07-06T12:33:21.450Z,27.61
2018-07-06T12:36:03.401Z,28.13
2018-07-06T12:38:45.386Z,27.83
2018-07-06T12:39:45.327Z,27.46
2018-07-06T12:40:45.231Z,27.43
2018-07-06T12:41:45.191Z,27.42
2018-07-06T12:42:45.106Z,27.52
2018-07-06T12:45:27.384Z,27.31
2018-07-06T12:46:27.355Z,27.23
2018-07-06T12:47:27.261Z,27.33
2018-07-06T12:48:27.162Z,27.63
2018-07-06T12:49:27.081Z,27.95
2018-07-06T12:50:27.030Z,28.30
2018-07-06T12:51:26.975Z,28.35
2018-07-06T12:52:26.898Z,28.30
2018-07-06T12:53:26.814Z,28.65
2018-07-06T12:54:26.746Z,28.60
2018-07-06T12:55:26.658Z,28.48
2018-07-06T12:56:26.658Z,27.93
2018-07-06T12:57:26.514Z,27.34
2018-07-06T12:58:26.468Z,27.46
2018-07-06T12:59:26.377Z,27.71
2018-07-06T13:00:27.374Z,27.69
2018-07-06T13:01:26.229Z,27.71
2018-07-06T13:02:26.156Z,28.08
2018-07-06T13:03:26.089Z,28.24
2018-07-06T13:04:26.025Z,28.33
2018-07-06T13:05:25.961Z,28.08
2018-07-06T13:06:25.886Z,28.06
2018-07-06T13:07:25.872Z,27.72
2018-07-06T13:08:25.808Z,27.90
2018-07-06T13:09:25.671Z,27.65
2018-07-06T13:10:25.646Z,27.93
2018-07-06T13:11:25.522Z,27.83
2018-07-06T13:12:25.449Z,27.69
2018-07-06T13:13:25.382Z,27.84
2018-07-06T13:14:25.315Z,28.11
2018-07-06T13:15:25.259Z,28.25
2018-07-06T13:16:25.167Z,28.02
2018-07-06T13:17:25.088Z,28.09
2018-07-06T13:18:25.023Z,28.43
2018-07-06T13:19:24.961Z,28.52
2018-07-06T13:20:24.881Z,28.48
2018-07-06T13:21:24.822Z,28.03
2018-07-06T13:24:06.899Z,28.05
2018-07-06T13:25:06.822Z,28.09
2018-07-06T13:26:06.740Z,28.06
2018-07-06T13:27:06.714Z,28.11
2018-07-06T13:28:06.639Z,27.74
2018-07-06T13:29:06.548Z,27.49
2018-07-06T13:30:06.462Z,27.20
2018-07-06T13:32:48.418Z,27.49
2018-07-06T13:33:48.440Z,27.42
2018-07-06T13:34:48.258Z,27.27
2018-07-06T13:35:48.207Z,27.21
2018-07-06T13:36:48.110Z,26.97
2018-07-06T13:37:48.277Z,26.86
2018-07-06T13:38:47.992Z,26.78
2018-07-06T13:39:47.928Z,26.83
2018-07-06T13:40:47.836Z,26.78
2018-07-06T13:41:47.786Z,26.73
2018-07-06T13:42:47.695Z,26.75
2018-07-06T13:45:29.896Z,26.41
2018-07-06T13:46:29.845Z,26.44
2018-07-06T13:47:29.763Z,26.38
2018-07-06T13:48:29.751Z,26.28
2018-07-06T13:49:29.606Z,26.12
2018-07-06T13:50:29.537Z,26.08
2018-07-06T13:51:29.457Z,26.00
2018-07-06T13:52:29.407Z,25.91
2018-07-06T13:53:29.318Z,25.89
2018-07-06T13:54:30.291Z,25.91
2018-07-06T13:55:29.166Z,25.74
2018-07-06T13:56:29.104Z,25.74
2018-07-06T13:57:29.025Z,25.63
2018-07-06T13:58:29.974Z,25.63
2018-07-06T13:59:28.914Z,25.63
2018-07-06T14:02:10.909Z,25.63
2018-07-06T14:03:10.951Z,25.59
2018-07-06T14:04:10.761Z,25.57
2018-07-06T14:05:10.721Z,25.61
2018-07-06T14:06:10.624Z,25.61
2018-07-06T14:07:10.533Z,25.61
2018-07-06T14:08:10.474Z,25.61
2018-07-06T14:09:10.439Z,25.57
2018-07-06T14:10:10.325Z,25.56
2018-07-06T14:12:52.457Z,25.61
2018-07-06T14:15:34.440Z,25.90
2018-07-06T14:18:16.419Z,25.89
2018-07-06T14:19:16.348Z,25.93
2018-07-06T14:20:16.309Z,26.01
2018-07-06T14:21:16.192Z,26.21
2018-07-06T14:22:16.117Z,26.20
2018-07-06T14:24:58.427Z,26.54
2018-07-06T14:25:58.352Z,26.61
2018-07-06T14:26:58.295Z,26.90
2018-07-06T14:29:40.402Z,26.90
2018-07-06T14:30:40.373Z,26.75
2018-07-06T14:31:40.277Z,26.71
2018-07-06T14:34:22.413Z,26.46
2018-07-06T14:35:22.366Z,26.56
2018-07-06T14:36:22.277Z,26.59
2018-07-06T14:37:22.205Z,26.65
2018-07-06T14:38:22.121Z,26.56
2018-07-06T14:39:22.049Z,26.68
2018-07-06T14:40:22.008Z,26.69
2018-07-06T14:43:03.933Z,27.16
2018-07-06T14:44:03.865Z,27.33
2018-07-06T14:45:03.788Z,27.59
2018-07-06T14:46:03.719Z,27.42
2018-07-06T14:47:03.633Z,27.34
2018-07-06T14:48:03.560Z,27.59
2018-07-06T14:49:03.481Z,27.63
2018-07-06T14:50:03.424Z,27.66
2018-07-06T14:51:03.431Z,27.58
2018-07-06T14:53:45.529Z,27.91
2018-07-06T14:54:45.378Z,27.93
2018-07-06T14:55:45.278Z,27.86
2018-07-06T14:56:45.247Z,27.96
2018-07-06T14:57:45.127Z,27.83
2018-07-06T14:58:45.072Z,27.98
2018-07-06T14:59:45.007Z,27.88
2018-07-06T15:02:26.984Z,27.76
2018-07-06T15:03:26.861Z,27.71
2018-07-06T15:04:26.788Z,27.72
2018-07-06T15:05:26.747Z,27.48
2018-07-06T15:06:26.654Z,27.33
2018-07-06T15:07:26.602Z,27.39